Kansai — JD3272 — position and weather

sailwx.info

Track history (hours):
 
Tides and Currents Weather Stations Pressure Air Temp Water Temp Dewpoint Dewpoint Depression Visibility Wind Speed Wind Dir Waves Ship Positions

Kansai

Last reported at 2015-Mar-31 21:33 UTC. Time now 2015-Apr-01 08:02 UTC.
Position N 34°03' E 134°60'.

Length 73 m; draft 4.2 m.

Type: Cargo ship. MMSI: 431003134.

Date/timePositionNaut miles runAvg speedWind from/ knotsBaromVisibWave heightAir tempDewpointWater temp
2015-Mar-31 21:33N 34°03' E 134°60'1110.5
2015-Mar-31 20:33N 34°14' E 134°58'1110.0
2015-Mar-31 19:27N 34°24' E 135°00'910.4
2015-Mar-31 18:33N 34°34' E 135°03'10 9.8
2015-Mar-31 17:30N 34°38' E 134°52'4 0.3
2015-Mar-31 04:13N 34°41' E 134°49'3 0.2
2015-Mar-30 13:21N 34°39' E 134°52'910.6
2015-Mar-30 12:31N 34°37' E 135°02'1111.8
2015-Mar-30 11:33N 34°37' E 135°16'10 9.6
2015-Mar-30 10:33N 34°38' E 135°28'0 0.1
2015-Mar-30 09:09N 34°38' E 135°28'0 0.0
2015-Mar-30 08:32N 34°38' E 135°28'1 0.8
2015-Mar-30 07:33N 34°38' E 135°27'0 0.3
2015-Mar-30 06:33N 34°38' E 135°27'1 0.8
2015-Mar-30 05:33N 34°39' E 135°28'0 0.1
2015-Mar-30 04:06N 34°38' E 135°28'0 0.0
2015-Mar-30 03:32N 34°38' E 135°28'0 0.0
2015-Mar-29 23:24N 34°38' E 135°28'3 3.6
2015-Mar-29 22:33N 34°38' E 135°24'4 3.6
2015-Mar-29 21:33N 34°36' E 135°21'0 0.0
2015-Mar-29 20:33N 34°36' E 135°21'0 0.0
2015-Mar-29 19:33N 34°36' E 135°21'0 0.0
2015-Mar-29 18:33N 34°36' E 135°21'0 0.0
2015-Mar-29 17:33N 34°36' E 135°21'0 0.0
2015-Mar-29 16:33N 34°36' E 135°21'0 0.0
2015-Mar-29 15:33N 34°36' E 135°21'10 9.7
2015-Mar-29 14:33N 34°29' E 135°13'2010.1
2015-Mar-29 12:33N 34°10' E 135°02'227 8.7
2015-Mar-28 10:26N 35°01' E 139°32'8 9.4
2015-Mar-28 09:33N 35°06' E 139°39'9 9.3
2015-Mar-28 08:33N 35°13' E 139°46'1010.4
2015-Mar-28 07:33N 35°23' E 139°42'1010.4
2015-Mar-28 06:33N 35°30' E 139°52'1010.1
2015-Mar-28 05:33N 35°39' E 139°58'2 1.8
2015-Mar-28 04:33N 35°41' E 139°57'0 0.0
2015-Mar-28 03:33N 35°41' E 139°57'0 0.0
2015-Mar-28 02:33N 35°41' E 139°57'0 0.0
2015-Mar-28 01:33N 35°41' E 139°57'0 0.0
2015-Mar-28 00:33N 35°41' E 139°57'0 0.0
2015-Mar-27 23:33N 35°41' E 139°57'0 0.2
2015-Mar-27 22:33N 35°41' E 139°58'0 0.0
2015-Mar-27 21:33N 35°41' E 139°58'0 0.0
2015-Mar-27 20:33N 35°41' E 139°58'0 0.0
2015-Mar-27 19:33N 35°41' E 139°58'0 0.0
2015-Mar-27 18:33N 35°41' E 139°58'0 0.0
2015-Mar-27 17:33N 35°41' E 139°58'0 0.0
2015-Mar-27 16:33N 35°41' E 139°58'0 0.0
2015-Mar-27 15:33N 35°41' E 139°58'0 0.0
2015-Mar-27 14:33N 35°41' E 139°58'0 0.0
2015-Mar-27 13:33N 35°41' E 139°58'0 0.0
2015-Mar-27 12:33N 35°41' E 139°58'0 0.0
2015-Mar-27 11:33N 35°41' E 139°58'0 0.0
2015-Mar-27 10:33N 35°41' E 139°58'0 0.0
2015-Mar-27 09:33N 35°41' E 139°58'0 0.0
2015-Mar-27 08:33N 35°41' E 139°58'0 0.0
2015-Mar-27 07:33N 35°41' E 139°58'0 0.0
2015-Mar-27 06:33N 35°41' E 139°58'0 0.0
2015-Mar-27 05:33N 35°41' E 139°58'0 0.0
2015-Mar-27 04:33N 35°41' E 139°58'0 0.0
2015-Mar-27 03:31N 35°41' E 139°58'0 0.0
2015-Mar-27 02:33N 35°41' E 139°58'0 0.0
2015-Mar-27 01:33N 35°41' E 139°58'0 0.0
2015-Mar-27 00:33N 35°41' E 139°58'0 0.0
2015-Mar-26 23:33N 35°41' E 139°58'0 0.0
2015-Mar-26 22:33N 35°41' E 139°58'0 0.0
2015-Mar-26 21:33N 35°41' E 139°58'0 0.0
2015-Mar-26 20:33N 35°41' E 139°58'0 0.0
2015-Mar-26 19:33N 35°41' E 139°58'0 0.0
2015-Mar-26 18:33N 35°41' E 139°58'0 0.0
2015-Mar-26 17:33N 35°41' E 139°58'0 0.0
2015-Mar-26 16:34N 35°41' E 139°58'0 0.0
2015-Mar-26 15:33N 35°41' E 139°58'0 0.0
2015-Mar-26 14:33N 35°41' E 139°58'0 0.0
2015-Mar-26 13:33N 35°41' E 139°58'0 0.0
2015-Mar-26 12:33N 35°41' E 139°58'0 0.0
2015-Mar-26 11:33N 35°41' E 139°58'0 0.0
2015-Mar-26 10:33N 35°41' E 139°58'0 0.0
2015-Mar-26 09:33N 35°41' E 139°58'0 0.0
2015-Mar-26 08:33N 35°41' E 139°58'0 0.0
2015-Mar-26 07:33N 35°41' E 139°58'0 0.0
2015-Mar-26 06:33N 35°41' E 139°58'0 0.0
2015-Mar-26 05:33N 35°41' E 139°58'0 0.0
2015-Mar-26 04:33N 35°41' E 139°58'0 0.0
2015-Mar-26 03:33N 35°41' E 139°58'0 0.0
2015-Mar-26 02:33N 35°41' E 139°58'0 0.0
2015-Mar-26 01:33N 35°41' E 139°58'0 0.0
2015-Mar-26 00:33N 35°41' E 139°58'0 0.0
2015-Mar-25 23:33N 35°41' E 139°58'0 0.0
2015-Mar-25 22:33N 35°41' E 139°58'0 0.1
2015-Mar-25 21:33N 35°41' E 139°57'0 0.0
2015-Mar-25 20:33N 35°41' E 139°57'0 0.0
2015-Mar-25 19:33N 35°41' E 139°57'0 0.0
2015-Mar-25 18:33N 35°41' E 139°57'0 0.0
2015-Mar-25 17:33N 35°41' E 139°57'0 0.0
2015-Mar-25 16:33N 35°41' E 139°57'0 0.0
2015-Mar-25 15:33N 35°41' E 139°57'0 0.0
2015-Mar-25 14:33N 35°41' E 139°57'0 0.0
2015-Mar-25 13:33N 35°41' E 139°57'0 0.0
2015-Mar-25 12:33N 35°41' E 139°57'0 0.0
2015-Mar-25 11:33N 35°41' E 139°57'0 0.0
2015-Mar-25 10:33N 35°41' E 139°57'0 0.0
2015-Mar-25 09:33N 35°41' E 139°57'0 0.0
2015-Mar-25 08:33N 35°41' E 139°57'0 0.0
2015-Mar-25 07:33N 35°41' E 139°57'0 0.0
2015-Mar-25 06:33N 35°41' E 139°57'0 0.0
2015-Mar-25 05:33N 35°41' E 139°57'0 0.0
2015-Mar-25 04:33N 35°41' E 139°57'0 0.0
2015-Mar-25 03:33N 35°41' E 139°57'0 0.0
2015-Mar-25 02:33N 35°41' E 139°57'0 0.0
2015-Mar-25 01:33N 35°41' E 139°57'0 0.0
2015-Mar-25 00:33N 35°41' E 139°57'0 0.0
2015-Mar-24 23:33N 35°41' E 139°57'0 0.0
2015-Mar-24 22:33N 35°41' E 139°57'4 3.9
2015-Mar-24 21:33N 35°37' E 139°58'0 0.1
2015-Mar-24 20:33N 35°37' E 139°58'0 0.0
2015-Mar-24 19:33N 35°37' E 139°58'0 0.0
2015-Mar-24 18:33N 35°37' E 139°58'0 0.0
2015-Mar-24 17:33N 35°37' E 139°58'0 0.0
2015-Mar-24 16:33N 35°37' E 139°58'0 0.0
2015-Mar-24 15:33N 35°37' E 139°58'0 0.0
2015-Mar-24 14:33N 35°37' E 139°58'0 0.0
2015-Mar-24 13:33N 35°37' E 139°58'0 0.0
2015-Mar-24 12:32N 35°37' E 139°58'0 0.1
2015-Mar-24 11:33N 35°37' E 139°58'8 7.8
2015-Mar-24 10:33N 35°30' E 139°53'10 9.9
2015-Mar-24 09:33N 35°23' E 139°46'1010.0
2015-Mar-24 08:33N 35°13' E 139°47'1010.5
2015-Mar-24 07:33N 35°03' E 139°42'241 4.7
2015-Mar-22 04:32N 34°41' E 134°49'  
Track history (hours):
 
Tides and Currents Weather Stations Pressure Air Temp Water Temp Dewpoint Dewpoint Depression Visibility Wind Speed Wind Dir Waves Ship Positions

Kansai

Last reported at 2015-Mar-31 21:33 UTC. Time now 2015-Apr-01 08:02 UTC.
Position N 34°03' E 134°60'.

Length 73 m; draft 4.2 m.

Type: Cargo ship. MMSI: 431003134.

Date/timePositionNaut miles runAvg speedWind from/ knotsBaromVisibWave heightAir tempDewpointWater temp
2015-Mar-31 21:33N 34°03' E 134°60'1110.5
2015-Mar-31 20:33N 34°14' E 134°58'1110.0
2015-Mar-31 19:27N 34°24' E 135°00'910.4
2015-Mar-31 18:33N 34°34' E 135°03'10 9.8
2015-Mar-31 17:30N 34°38' E 134°52'4 0.3
2015-Mar-31 04:13N 34°41' E 134°49'3 0.2
2015-Mar-30 13:21N 34°39' E 134°52'910.6
2015-Mar-30 12:31N 34°37' E 135°02'1111.8
2015-Mar-30 11:33N 34°37' E 135°16'10 9.6
2015-Mar-30 10:33N 34°38' E 135°28'0 0.1
2015-Mar-30 09:09N 34°38' E 135°28'0 0.0
2015-Mar-30 08:32N 34°38' E 135°28'1 0.8
2015-Mar-30 07:33N 34°38' E 135°27'0 0.3
2015-Mar-30 06:33N 34°38' E 135°27'1 0.8
2015-Mar-30 05:33N 34°39' E 135°28'0 0.1
2015-Mar-30 04:06N 34°38' E 135°28'0 0.0
2015-Mar-30 03:32N 34°38' E 135°28'0 0.0
2015-Mar-29 23:24N 34°38' E 135°28'3 3.6
2015-Mar-29 22:33N 34°38' E 135°24'4 3.6
2015-Mar-29 21:33N 34°36' E 135°21'0 0.0
2015-Mar-29 20:33N 34°36' E 135°21'0 0.0
2015-Mar-29 19:33N 34°36' E 135°21'0 0.0
2015-Mar-29 18:33N 34°36' E 135°21'0 0.0
2015-Mar-29 17:33N 34°36' E 135°21'0 0.0
2015-Mar-29 16:33N 34°36' E 135°21'0 0.0
2015-Mar-29 15:33N 34°36' E 135°21'10 9.7
2015-Mar-29 14:33N 34°29' E 135°13'2010.1
2015-Mar-29 12:33N 34°10' E 135°02'227 8.7
2015-Mar-28 10:26N 35°01' E 139°32'8 9.4
2015-Mar-28 09:33N 35°06' E 139°39'9 9.3
2015-Mar-28 08:33N 35°13' E 139°46'1010.4
2015-Mar-28 07:33N 35°23' E 139°42'1010.4
2015-Mar-28 06:33N 35°30' E 139°52'1010.1
2015-Mar-28 05:33N 35°39' E 139°58'2 1.8
2015-Mar-28 04:33N 35°41' E 139°57'0 0.0
2015-Mar-28 03:33N 35°41' E 139°57'0 0.0
2015-Mar-28 02:33N 35°41' E 139°57'0 0.0
2015-Mar-28 01:33N 35°41' E 139°57'0 0.0
2015-Mar-28 00:33N 35°41' E 139°57'0 0.0
2015-Mar-27 23:33N 35°41' E 139°57'0 0.2
2015-Mar-27 22:33N 35°41' E 139°58'0 0.0
2015-Mar-27 21:33N 35°41' E 139°58'0 0.0
2015-Mar-27 20:33N 35°41' E 139°58'0 0.0
2015-Mar-27 19:33N 35°41' E 139°58'0 0.0
2015-Mar-27 18:33N 35°41' E 139°58'0 0.0
2015-Mar-27 17:33N 35°41' E 139°58'0 0.0
2015-Mar-27 16:33N 35°41' E 139°58'0 0.0
2015-Mar-27 15:33N 35°41' E 139°58'0 0.0
2015-Mar-27 14:33N 35°41' E 139°58'0 0.0
2015-Mar-27 13:33N 35°41' E 139°58'0 0.0
2015-Mar-27 12:33N 35°41' E 139°58'0 0.0
2015-Mar-27 11:33N 35°41' E 139°58'0 0.0
2015-Mar-27 10:33N 35°41' E 139°58'0 0.0
2015-Mar-27 09:33N 35°41' E 139°58'0 0.0
2015-Mar-27 08:33N 35°41' E 139°58'0 0.0
2015-Mar-27 07:33N 35°41' E 139°58'0 0.0
2015-Mar-27 06:33N 35°41' E 139°58'0 0.0
2015-Mar-27 05:33N 35°41' E 139°58'0 0.0
2015-Mar-27 04:33N 35°41' E 139°58'0 0.0
2015-Mar-27 03:31N 35°41' E 139°58'0 0.0
2015-Mar-27 02:33N 35°41' E 139°58'0 0.0
2015-Mar-27 01:33N 35°41' E 139°58'0 0.0
2015-Mar-27 00:33N 35°41' E 139°58'0 0.0
2015-Mar-26 23:33N 35°41' E 139°58'0 0.0
2015-Mar-26 22:33N 35°41' E 139°58'0 0.0
2015-Mar-26 21:33N 35°41' E 139°58'0 0.0
2015-Mar-26 20:33N 35°41' E 139°58'0 0.0
2015-Mar-26 19:33N 35°41' E 139°58'0 0.0
2015-Mar-26 18:33N 35°41' E 139°58'0 0.0
2015-Mar-26 17:33N 35°41' E 139°58'0 0.0
2015-Mar-26 16:34N 35°41' E 139°58'0 0.0
2015-Mar-26 15:33N 35°41' E 139°58'0 0.0
2015-Mar-26 14:33N 35°41' E 139°58'0 0.0
2015-Mar-26 13:33N 35°41' E 139°58'0 0.0
2015-Mar-26 12:33N 35°41' E 139°58'0 0.0
2015-Mar-26 11:33N 35°41' E 139°58'0 0.0
2015-Mar-26 10:33N 35°41' E 139°58'0 0.0
2015-Mar-26 09:33N 35°41' E 139°58'0 0.0
2015-Mar-26 08:33N 35°41' E 139°58'0 0.0
2015-Mar-26 07:33N 35°41' E 139°58'0 0.0
2015-Mar-26 06:33N 35°41' E 139°58'0 0.0
2015-Mar-26 05:33N 35°41' E 139°58'0 0.0
2015-Mar-26 04:33N 35°41' E 139°58'0 0.0
2015-Mar-26 03:33N 35°41' E 139°58'0 0.0
2015-Mar-26 02:33N 35°41' E 139°58'0 0.0
2015-Mar-26 01:33N 35°41' E 139°58'0 0.0
2015-Mar-26 00:33N 35°41' E 139°58'0 0.0
2015-Mar-25 23:33N 35°41' E 139°58'0 0.0
2015-Mar-25 22:33N 35°41' E 139°58'0 0.1
2015-Mar-25 21:33N 35°41' E 139°57'0 0.0
2015-Mar-25 20:33N 35°41' E 139°57'0 0.0
2015-Mar-25 19:33N 35°41' E 139°57'0 0.0
2015-Mar-25 18:33N 35°41' E 139°57'0 0.0
2015-Mar-25 17:33N 35°41' E 139°57'0 0.0
2015-Mar-25 16:33N 35°41' E 139°57'0 0.0
2015-Mar-25 15:33N 35°41' E 139°57'0 0.0
2015-Mar-25 14:33N 35°41' E 139°57'0 0.0
2015-Mar-25 13:33N 35°41' E 139°57'0 0.0
2015-Mar-25 12:33N 35°41' E 139°57'0 0.0
2015-Mar-25 11:33N 35°41' E 139°57'0 0.0
2015-Mar-25 10:33N 35°41' E 139°57'0 0.0
2015-Mar-25 09:33N 35°41' E 139°57'0 0.0
2015-Mar-25 08:33N 35°41' E 139°57'0 0.0
2015-Mar-25 07:33N 35°41' E 139°57'0 0.0
2015-Mar-25 06:33N 35°41' E 139°57'0 0.0
2015-Mar-25 05:33N 35°41' E 139°57'0 0.0
2015-Mar-25 04:33N 35°41' E 139°57'0 0.0
2015-Mar-25 03:33N 35°41' E 139°57'0 0.0
2015-Mar-25 02:33N 35°41' E 139°57'0 0.0
2015-Mar-25 01:33N 35°41' E 139°57'0 0.0
2015-Mar-25 00:33N 35°41' E 139°57'0 0.0
2015-Mar-24 23:33N 35°41' E 139°57'0 0.0
2015-Mar-24 22:33N 35°41' E 139°57'4 3.9
2015-Mar-24 21:33N 35°37' E 139°58'0 0.1
2015-Mar-24 20:33N 35°37' E 139°58'0 0.0
2015-Mar-24 19:33N 35°37' E 139°58'0 0.0
2015-Mar-24 18:33N 35°37' E 139°58'0 0.0
2015-Mar-24 17:33N 35°37' E 139°58'0 0.0
2015-Mar-24 16:33N 35°37' E 139°58'0 0.0
2015-Mar-24 15:33N 35°37' E 139°58'0 0.0
2015-Mar-24 14:33N 35°37' E 139°58'0 0.0
2015-Mar-24 13:33N 35°37' E 139°58'0 0.0
2015-Mar-24 12:32N 35°37' E 139°58'0 0.1
2015-Mar-24 11:33N 35°37' E 139°58'8 7.8
2015-Mar-24 10:33N 35°30' E 139°53'10 9.9
2015-Mar-24 09:33N 35°23' E 139°46'1010.0
2015-Mar-24 08:33N 35°13' E 139°47'1010.5
2015-Mar-24 07:33N 35°03' E 139°42'241 4.7
2015-Mar-22 04:32N 34°41' E 134°49'  

Dump ship's entire track history